Time;durP1;ratioP1;P1;durP2;ratioP2;P2;SDS_P1;SDS_P2;PMS_P1;PMS_P2;Temp;Humidity;BMP_temperature;BMP_pressure;BME280_temperature;BME280_humidity;BME280_pressure;Samples;Min_cycle;Max_cycle;Signal;HPM_P1;HPM_P2
2021/08/16 00:02:20;;;;;;;30.90;10.55;;;;;;;;;;4991521;28;20121;-54
2021/08/16 00:04:45;;;;;;;24.27;10.00;;;;;;;;;;4979921;28;20116;-57
2021/08/16 00:07:17;;;;;;;28.13;10.52;;;;;;;;;;4987738;28;20029;-59
2021/08/16 00:09:42;;;;;;;24.42;11.32;;;;;;;;;;5002129;28;20029;-57
2021/08/16 00:12:10;;;;;;;30.02;11.77;;;;;;;;;;5002019;28;20034;-58
2021/08/16 00:14:38;;;;;;;34.83;11.98;;;;;;;;;;4984113;28;20030;-59
2021/08/16 00:17:03;;;;;;;28.13;10.18;;;;;;;;;;5000874;28;20995;-59
2021/08/16 00:19:29;;;;;;;20.33;9.23;;;;;;;;;;4984306;28;20784;-58
2021/08/16 00:21:55;;;;;;;16.30;7.13;;;;;;;;;;4998888;28;20030;-59
2021/08/16 00:24:24;;;;;;;19.80;7.57;;;;;;;;;;5000475;28;20103;-60
2021/08/16 00:26:49;;;;;;;16.40;6.43;;;;;;;;;;4968859;28;20029;-58
2021/08/16 00:29:15;;;;;;;12.80;5.53;;;;;;;;;;4986293;28;20032;-60
2021/08/16 00:31:41;;;;;;;9.85;5.18;;;;;;;;;;4968812;28;20030;-59
2021/08/16 00:34:08;;;;;;;12.98;4.63;;;;;;;;;;4984390;28;20036;-59
2021/08/16 00:36:34;;;;;;;19.35;4.70;;;;;;;;;;4969227;28;20037;-59
2021/08/16 00:39:00;;;;;;;10.30;3.72;;;;;;;;;;4983164;28;20041;-58
2021/08/16 00:41:25;;;;;;;14.85;3.55;;;;;;;;;;4966128;28;20029;-58
2021/08/16 00:43:53;;;;;;;8.25;3.63;;;;;;;;;;5002426;28;20053;-59
2021/08/16 00:46:21;;;;;;;6.50;3.25;;;;;;;;;;5001404;28;20705;-58
2021/08/16 00:48:54;;;;;;;10.25;3.08;;;;;;;;;;4982265;28;20025;-60
2021/08/16 00:51:20;;;;;;;13.98;3.03;;;;;;;;;;5002388;28;20026;-59
2021/08/16 00:53:46;;;;;;;10.05;3.60;;;;;;;;;;4999947;28;20507;-59
2021/08/16 00:56:13;;;;;;;12.95;3.92;;;;;;;;;;4996641;28;20034;-59
2021/08/16 00:58:39;;;;;;;9.13;3.13;;;;;;;;;;4984133;28;20025;-59
2021/08/16 01:01:06;;;;;;;11.63;3.78;;;;;;;;;;4999991;28;20041;-59
2021/08/16 01:03:34;;;;;;;21.75;3.92;;;;;;;;;;4982568;28;20125;-59
2021/08/16 01:06:02;;;;;;;16.70;4.22;;;;;;;;;;5001235;28;20029;-59
2021/08/16 01:08:33;;;;;;;31.27;4.78;;;;;;;;;;4998284;28;20092;-59
2021/08/16 01:11:00;;;;;;;22.00;5.40;;;;;;;;;;5001868;28;20053;-59
2021/08/16 01:13:26;;;;;;;27.38;5.32;;;;;;;;;;4967288;28;20125;-60
2021/08/16 01:16:04;;;;;;;24.88;5.28;;;;;;;;;;5001015;28;20041;-58
2021/08/16 01:18:34;;;;;;;16.83;4.20;;;;;;;;;;5004946;28;20041;-58
2021/08/16 01:21:01;;;;;;;26.08;5.72;;;;;;;;;;4988389;28;20030;-58
2021/08/16 01:23:28;;;;;;;27.00;5.80;;;;;;;;;;5006368;28;21862;-59
2021/08/16 01:25:56;;;;;;;22.23;4.97;;;;;;;;;;4988702;28;20099;-61
2021/08/16 01:28:22;;;;;;;24.27;5.30;;;;;;;;;;4988713;28;20085;-60
2021/08/16 01:30:54;;;;;;;18.52;4.90;;;;;;;;;;5004557;28;20288;-58
2021/08/16 01:33:20;;;;;;;20.48;4.45;;;;;;;;;;5005073;28;20041;-58
2021/08/16 01:35:45;;;;;;;25.20;5.25;;;;;;;;;;4988407;28;20025;-58
2021/08/16 01:38:11;;;;;;;23.88;5.43;;;;;;;;;;4984363;28;20117;-58
2021/08/16 01:40:39;;;;;;;16.67;5.05;;;;;;;;;;5002378;28;20476;-58
2021/08/16 01:43:07;;;;;;;20.42;5.68;;;;;;;;;;5003830;28;20025;-59
2021/08/16 01:45:33;;;;;;;23.55;6.55;;;;;;;;;;5003160;28;20045;-60
2021/08/16 01:47:58;;;;;;;17.55;4.53;;;;;;;;;;5002694;28;20091;-58
2021/08/16 01:50:24;;;;;;;24.55;5.82;;;;;;;;;;4984891;28;20532;-58
2021/08/16 01:52:50;;;;;;;27.63;6.35;;;;;;;;;;5004310;28;20031;-59
2021/08/16 01:55:16;;;;;;;27.38;5.95;;;;;;;;;;5005353;28;20029;-59
2021/08/16 01:57:41;;;;;;;25.88;5.35;;;;;;;;;;4989986;28;20493;-59
2021/08/16 02:00:09;;;;;;;28.38;5.68;;;;;;;;;;5007211;28;20676;-59
2021/08/16 02:02:35;;;;;;;23.80;5.55;;;;;;;;;;5004894;28;20122;-58
2021/08/16 02:05:00;;;;;;;30.30;6.20;;;;;;;;;;4976007;28;20473;-58
2021/08/16 02:07:30;;;;;;;36.25;5.50;;;;;;;;;;5006599;28;20076;-59
2021/08/16 02:09:57;;;;;;;28.40;6.05;;;;;;;;;;5006095;28;20398;-59
2021/08/16 02:12:26;;;;;;;26.17;6.07;;;;;;;;;;5006461;28;20041;-59
2021/08/16 02:14:52;;;;;;;31.70;6.28;;;;;;;;;;5004145;28;20080;-60
2021/08/16 02:17:19;;;;;;;21.63;5.97;;;;;;;;;;4972329;28;20030;-59
2021/08/16 02:19:47;;;;;;;34.92;6.53;;;;;;;;;;5004269;28;20042;-59
2021/08/16 02:22:15;;;;;;;30.10;5.88;;;;;;;;;;5002448;28;20523;-59
2021/08/16 02:24:44;;;;;;;26.52;5.45;;;;;;;;;;5000919;28;20036;-58
2021/08/16 02:27:09;;;;;;;32.90;6.47;;;;;;;;;;5002896;28;20038;-58
2021/08/16 02:29:34;;;;;;;22.90;5.90;;;;;;;;;;5004237;28;20032;-60
2021/08/16 02:32:05;;;;;;;39.97;7.15;;;;;;;;;;4987944;28;20061;-58
2021/08/16 02:34:31;;;;;;;26.42;6.10;;;;;;;;;;5005260;28;20044;-58
2021/08/16 02:37:01;;;;;;;25.23;6.20;;;;;;;;;;5005235;28;20033;-59
2021/08/16 02:39:26;;;;;;;23.90;5.97;;;;;;;;;;4999069;28;20251;-59
2021/08/16 02:41:54;;;;;;;23.95;5.72;;;;;;;;;;5003364;28;20029;-57
2021/08/16 02:44:24;;;;;;;16.58;5.10;;;;;;;;;;5002898;28;20059;-59
2021/08/16 02:46:54;;;;;;;29.13;6.35;;;;;;;;;;5003461;28;20167;-59
2021/08/16 02:49:19;;;;;;;22.50;6.38;;;;;;;;;;4988565;28;20022;-58
2021/08/16 02:51:50;;;;;;;25.83;5.30;;;;;;;;;;4986082;28;20030;-58
2021/08/16 02:54:20;;;;;;;28.20;6.30;;;;;;;;;;4987698;28;20025;-58
2021/08/16 02:56:46;;;;;;;32.65;6.93;;;;;;;;;;5003589;28;20702;-58
2021/08/16 02:59:14;;;;;;;35.13;5.90;;;;;;;;;;4987418;28;20105;-58
2021/08/16 03:01:42;;;;;;;27.38;6.38;;;;;;;;;;5001425;28;20519;-59
2021/08/16 03:04:08;;;;;;;28.58;6.55;;;;;;;;;;4986269;28;20041;-59
2021/08/16 03:06:36;;;;;;;40.53;6.45;;;;;;;;;;4987801;28;20042;-59
2021/08/16 03:09:01;;;;;;;20.10;6.43;;;;;;;;;;5001139;28;20064;-58
2021/08/16 03:11:27;;;;;;;25.02;6.80;;;;;;;;;;4987957;28;20057;-58
2021/08/16 03:13:54;;;;;;;23.17;6.90;;;;;;;;;;4969469;28;20033;-58
2021/08/16 03:16:22;;;;;;;22.67;6.38;;;;;;;;;;4999276;28;20037;-58
2021/08/16 03:18:50;;;;;;;25.67;6.90;;;;;;;;;;4983002;28;20033;-58
2021/08/16 03:21:16;;;;;;;18.20;6.50;;;;;;;;;;4992877;28;20030;-58
2021/08/16 03:23:44;;;;;;;23.48;6.45;;;;;;;;;;5000368;28;20044;-58
2021/08/16 03:26:09;;;;;;;17.83;5.97;;;;;;;;;;5001992;28;20124;-57
2021/08/16 03:28:35;;;;;;;27.30;6.85;;;;;;;;;;5003024;28;20030;-57
2021/08/16 03:31:03;;;;;;;26.88;7.20;;;;;;;;;;4968986;28;20412;-59
2021/08/16 03:33:29;;;;;;;19.33;6.05;;;;;;;;;;4991354;28;20079;-59
2021/08/16 03:35:54;;;;;;;24.75;6.68;;;;;;;;;;4982047;28;20543;-58
2021/08/16 03:38:20;;;;;;;27.45;6.75;;;;;;;;;;4984683;28;20021;-58
2021/08/16 03:40:46;;;;;;;10.02;5.13;;;;;;;;;;4999018;28;21297;-58
2021/08/16 03:43:12;;;;;;;14.05;5.78;;;;;;;;;;5003430;28;20029;-57
2021/08/16 03:45:42;;;;;;;14.90;5.60;;;;;;;;;;4970758;28;21542;-58
2021/08/16 03:48:10;;;;;;;15.65;6.53;;;;;;;;;;4969650;28;20770;-58
2021/08/16 03:50:38;;;;;;;22.77;6.10;;;;;;;;;;4984092;28;21041;-58
2021/08/16 03:53:05;;;;;;;20.23;6.25;;;;;;;;;;5002413;28;20496;-58
2021/08/16 03:55:31;;;;;;;36.25;7.43;;;;;;;;;;4987090;28;20041;-57
2021/08/16 03:57:58;;;;;;;16.85;6.07;;;;;;;;;;5001144;28;20034;-57
2021/08/16 04:00:27;;;;;;;22.92;5.75;;;;;;;;;;5001870;28;20102;-57
2021/08/16 04:02:57;;;;;;;17.17;5.78;;;;;;;;;;4999414;28;20576;-56
2021/08/16 04:05:26;;;;;;;18.52;5.82;;;;;;;;;;5001636;28;20097;-57
2021/08/16 04:07:52;;;;;;;22.65;5.20;;;;;;;;;;5001777;28;20044;-57
2021/08/16 04:10:19;;;;;;;15.85;5.80;;;;;;;;;;4982402;28;21816;-57
2021/08/16 04:12:45;;;;;;;23.13;6.20;;;;;;;;;;4999894;28;20090;-57
2021/08/16 04:15:11;;;;;;;13.43;5.68;;;;;;;;;;4987667;28;20045;-58
2021/08/16 04:17:40;;;;;;;19.85;6.10;;;;;;;;;;4999273;28;20907;-58
2021/08/16 04:20:11;;;;;;;15.77;4.82;;;;;;;;;;5002000;28;20025;-56
2021/08/16 04:22:39;;;;;;;24.20;6.68;;;;;;;;;;4989828;28;20041;-55
2021/08/16 04:25:08;;;;;;;23.67;5.32;;;;;;;;;;4967853;28;20471;-56
2021/08/16 04:27:37;;;;;;;21.10;6.43;;;;;;;;;;5002337;28;20992;-57
2021/08/16 04:30:07;;;;;;;34.63;6.75;;;;;;;;;;5002549;28;20037;-58
2021/08/16 04:32:35;;;;;;;22.80;6.38;;;;;;;;;;5003116;28;21144;-56
2021/08/16 04:35:07;;;;;;;;;;;;;;;;;;4972441;28;20120;-56
2021/08/16 04:37:34;;;;;;;16.73;5.43;;;;;;;;;;5001584;28;19917;-57
2021/08/16 04:40:02;;;;;;;20.83;5.78;;;;;;;;;;5001803;28;20029;-56
2021/08/16 04:42:28;;;;;;;13.20;5.32;;;;;;;;;;4983926;28;20119;-56
2021/08/16 04:44:53;;;;;;;17.67;5.47;;;;;;;;;;5002569;28;20660;-56
2021/08/16 04:47:21;;;;;;;20.63;6.50;;;;;;;;;;4986080;28;20081;-56
2021/08/16 04:49:47;;;;;;;15.13;5.72;;;;;;;;;;4994445;28;20032;-56
2021/08/16 04:52:15;;;;;;;17.42;5.38;;;;;;;;;;5005383;28;20037;-58
2021/08/16 04:54:41;;;;;;;15.95;5.55;;;;;;;;;;4989463;28;20661;-57
2021/08/16 04:57:13;;;;;;;16.90;4.90;;;;;;;;;;5006872;28;20057;-57
2021/08/16 04:59:39;;;;;;;18.90;3.55;;;;;;;;;;5008726;28;20504;-57
2021/08/16 05:02:05;;;;;;;11.60;3.88;;;;;;;;;;4987709;28;20036;-56
2021/08/16 05:04:33;;;;;;;7.90;3.13;;;;;;;;;;5006784;28;20554;-57
2021/08/16 05:07:03;;;;;;;15.75;3.25;;;;;;;;;;5003680;28;20036;-57
2021/08/16 05:09:30;;;;;;;6.97;2.92;;;;;;;;;;4987745;28;20056;-57
2021/08/16 05:12:00;;;;;;;6.45;2.85;;;;;;;;;;4976849;28;20029;-57
2021/08/16 05:14:28;;;;;;;8.80;2.47;;;;;;;;;;4988431;28;20041;-57
2021/08/16 05:16:56;;;;;;;7.68;2.30;;;;;;;;;;5005118;28;20476;-57
2021/08/16 05:19:26;;;;;;;7.93;2.13;;;;;;;;;;5001512;28;20037;-57
2021/08/16 05:21:54;;;;;;;7.20;2.40;;;;;;;;;;4990525;28;20049;-57
2021/08/16 05:24:22;;;;;;;3.50;2.10;;;;;;;;;;5004882;28;20160;-57
2021/08/16 05:26:47;;;;;;;12.52;2.55;;;;;;;;;;4958214;28;20064;-58
2021/08/16 05:29:15;;;;;;;6.65;2.17;;;;;;;;;;4987477;28;21949;-58
2021/08/16 05:31:43;;;;;;;8.73;2.25;;;;;;;;;;4973110;28;21595;-57
2021/08/16 05:34:08;;;;;;;4.97;1.67;;;;;;;;;;5005806;28;20171;-58
2021/08/16 05:36:36;;;;;;;10.55;2.30;;;;;;;;;;5005519;28;20937;-57
2021/08/16 05:39:02;;;;;;;4.97;1.92;;;;;;;;;;4984937;28;20220;-57
2021/08/16 05:41:28;;;;;;;9.68;2.47;;;;;;;;;;4985133;28;20608;-58
2021/08/16 05:43:56;;;;;;;8.20;2.30;;;;;;;;;;4973506;28;20034;-57
2021/08/16 05:46:24;;;;;;;7.70;2.42;;;;;;;;;;5005796;28;20136;-57
2021/08/16 05:48:50;;;;;;;10.45;2.25;;;;;;;;;;4986491;28;20039;-58
2021/08/16 05:51:16;;;;;;;4.97;2.25;;;;;;;;;;4990757;28;20060;-57
2021/08/16 05:53:42;;;;;;;6.20;3.00;;;;;;;;;;5005911;28;20057;-58
2021/08/16 05:56:08;;;;;;;5.93;2.92;;;;;;;;;;5004681;28;20232;-57
2021/08/16 05:58:33;;;;;;;6.57;2.72;;;;;;;;;;5004123;28;20033;-57
2021/08/16 06:00:59;;;;;;;6.28;2.70;;;;;;;;;;5003882;28;20048;-58
2021/08/16 06:03:24;;;;;;;7.13;2.55;;;;;;;;;;4972771;28;20091;-58
2021/08/16 06:05:52;;;;;;;6.25;2.70;;;;;;;;;;5005318;28;20056;-58
2021/08/16 06:08:20;;;;;;;8.43;3.33;;;;;;;;;;4973989;28;20042;-55
2021/08/16 06:10:48;;;;;;;6.80;3.30;;;;;;;;;;4973212;28;20025;-54
2021/08/16 06:13:16;;;;;;;7.72;3.30;;;;;;;;;;5003062;28;20257;-53
2021/08/16 06:15:41;;;;;;;11.95;3.75;;;;;;;;;;4971198;28;20029;-57
2021/08/16 06:18:09;;;;;;;16.52;3.53;;;;;;;;;;5004112;28;20040;-58
2021/08/16 06:20:34;;;;;;;8.73;3.92;;;;;;;;;;5004929;28;20030;-57
2021/08/16 06:23:02;;;;;;;5.32;2.90;;;;;;;;;;4986549;28;20045;-57
2021/08/16 06:25:30;;;;;;;13.32;3.00;;;;;;;;;;4983951;28;20101;-58
2021/08/16 06:27:59;;;;;;;8.75;3.17;;;;;;;;;;5003684;28;20045;-56
2021/08/16 06:30:24;;;;;;;7.35;2.83;;;;;;;;;;5005455;28;20017;-58
2021/08/16 06:32:52;;;;;;;8.43;3.20;;;;;;;;;;5003950;28;20036;-60
2021/08/16 06:35:20;;;;;;;4.65;2.90;;;;;;;;;;4986076;28;20076;-57
2021/08/16 06:37:47;;;;;;;12.02;3.15;;;;;;;;;;5005149;28;20765;-56
2021/08/16 06:40:15;;;;;;;7.40;3.10;;;;;;;;;;4985077;28;20033;-56
2021/08/16 06:42:43;;;;;;;6.68;3.00;;;;;;;;;;5003682;28;20156;-57
2021/08/16 06:45:09;;;;;;;8.00;2.78;;;;;;;;;;4989300;28;20038;-54
2021/08/16 06:47:37;;;;;;;7.40;2.72;;;;;;;;;;4987626;28;20801;-57
2021/08/16 06:50:03;;;;;;;7.15;2.63;;;;;;;;;;4985229;28;20146;-56
2021/08/16 06:52:31;;;;;;;4.05;2.72;;;;;;;;;;5002637;28;20037;-56
2021/08/16 06:54:57;;;;;;;3.78;2.10;;;;;;;;;;5001337;28;20990;-58
2021/08/16 06:57:26;;;;;;;2.30;1.73;;;;;;;;;;5002411;28;20025;-57
2021/08/16 06:59:52;;;;;;;3.22;1.70;;;;;;;;;;4970673;28;20040;-58
2021/08/16 07:02:22;;;;;;;8.52;1.55;;;;;;;;;;4986741;28;20034;-57
2021/08/16 07:04:48;;;;;;;7.15;1.75;;;;;;;;;;4985506;28;20037;-57
2021/08/16 07:07:13;;;;;;;6.78;2.10;;;;;;;;;;5003933;28;20074;-57
2021/08/16 07:09:42;;;;;;;7.80;1.98;;;;;;;;;;4986848;28;20033;-56
2021/08/16 07:12:09;;;;;;;5.97;1.90;;;;;;;;;;5001719;28;20612;-56
2021/08/16 07:14:37;;;;;;;4.30;1.52;;;;;;;;;;4987824;28;20251;-56
2021/08/16 07:17:03;;;;;;;9.65;2.08;;;;;;;;;;4985846;28;20443;-56
2021/08/16 07:19:28;;;;;;;6.70;1.98;;;;;;;;;;4969684;28;20501;-57
2021/08/16 07:21:54;;;;;;;8.38;2.03;;;;;;;;;;4986861;28;20033;-57
2021/08/16 07:24:21;;;;;;;18.65;2.30;;;;;;;;;;5002875;28;20159;-57
2021/08/16 07:26:46;;;;;;;5.72;1.63;;;;;;;;;;4984850;28;20479;-57
2021/08/16 07:29:14;;;;;;;8.48;1.77;;;;;;;;;;5004936;28;20050;-57
2021/08/16 07:31:44;;;;;;;5.30;1.95;;;;;;;;;;4986177;28;20036;-58
2021/08/16 07:34:12;;;;;;;7.53;1.70;;;;;;;;;;4979864;28;20493;-57
2021/08/16 07:36:40;;;;;;;3.83;1.42;;;;;;;;;;5002595;28;20036;-58
2021/08/16 07:39:08;;;;;;;3.47;1.27;;;;;;;;;;5002107;28;20048;-60
2021/08/16 07:41:33;;;;;;;3.80;1.20;;;;;;;;;;5003326;28;20714;-58
2021/08/16 07:43:59;;;;;;;2.85;1.50;;;;;;;;;;4999260;28;20052;-59
2021/08/16 07:46:25;;;;;;;1.58;0.93;;;;;;;;;;4986688;28;20053;-58
2021/08/16 07:48:54;;;;;;;1.80;1.27;;;;;;;;;;4969557;28;20049;-58
2021/08/16 07:51:23;;;;;;;8.98;1.60;;;;;;;;;;5006593;28;20076;-58
2021/08/16 07:53:51;;;;;;;3.25;1.15;;;;;;;;;;5008853;28;20032;-59
2021/08/16 07:56:19;;;;;;;1.70;0.95;;;;;;;;;;5003900;28;20033;-58
2021/08/16 07:58:47;;;;;;;6.90;1.20;;;;;;;;;;4989995;28;20033;-60
2021/08/16 08:01:17;;;;;;;5.53;1.17;;;;;;;;;;4985985;28;20025;-58
2021/08/16 08:03:42;;;;;;;3.05;0.80;;;;;;;;;;4985779;28;20033;-58
2021/08/16 08:06:09;;;;;;;4.30;1.02;;;;;;;;;;5002874;28;20032;-58
2021/08/16 08:08:34;;;;;;;5.97;1.45;;;;;;;;;;4984902;28;20041;-59
2021/08/16 08:10:59;;;;;;;5.45;1.10;;;;;;;;;;5000776;28;20037;-59
2021/08/16 08:13:28;;;;;;;8.77;1.27;;;;;;;;;;5001907;28;20068;-58
2021/08/16 08:15:58;;;;;;;5.28;1.35;;;;;;;;;;5003703;28;20151;-58
2021/08/16 08:18:24;;;;;;;4.80;1.52;;;;;;;;;;5002200;28;20543;-58
2021/08/16 08:20:52;;;;;;;6.80;1.55;;;;;;;;;;5000705;28;20132;-58
2021/08/16 08:23:20;;;;;;;7.13;1.83;;;;;;;;;;5002448;28;20037;-58
2021/08/16 08:25:45;;;;;;;3.75;1.25;;;;;;;;;;4999706;28;20111;-58
2021/08/16 08:28:16;;;;;;;9.65;1.95;;;;;;;;;;5002471;28;20105;-58
2021/08/16 08:30:42;;;;;;;6.95;1.40;;;;;;;;;;5000088;28;21544;-61
2021/08/16 08:33:08;;;;;;;10.25;1.50;;;;;;;;;;4969858;28;20049;-59
2021/08/16 08:35:36;;;;;;;6.00;1.45;;;;;;;;;;4986175;28;20033;-60
2021/08/16 08:38:01;;;;;;;6.97;1.38;;;;;;;;;;5002540;28;21727;-58
2021/08/16 08:40:28;;;;;;;4.88;1.27;;;;;;;;;;5001140;28;20038;-58
2021/08/16 08:42:57;;;;;;;7.32;1.77;;;;;;;;;;4984328;28;20030;-58
2021/08/16 08:45:30;;;;;;;9.32;1.73;;;;;;;;;;4999227;28;20191;-60
2021/08/16 08:47:58;;;;;;;5.93;1.20;;;;;;;;;;5003176;28;20044;-58
2021/08/16 08:50:26;;;;;;;6.90;1.45;;;;;;;;;;4967333;28;20033;-59
2021/08/16 08:52:56;;;;;;;5.32;1.67;;;;;;;;;;4954475;28;20041;-60
2021/08/16 08:55:22;;;;;;;6.53;1.50;;;;;;;;;;5002096;28;20029;-60
2021/08/16 08:57:47;;;;;;;9.15;2.15;;;;;;;;;;5000349;28;20040;-59
2021/08/16 09:00:16;;;;;;;14.15;2.15;;;;;;;;;;4985531;28;20124;-57
2021/08/16 09:02:54;;;;;;;5.63;1.63;;;;;;;;;;5003533;28;20022;-58
2021/08/16 09:05:20;;;;;;;7.25;1.63;;;;;;;;;;5002627;28;20053;-57
2021/08/16 09:07:45;;;;;;;8.32;2.13;;;;;;;;;;4988858;28;20037;-57
2021/08/16 09:10:14;;;;;;;8.90;1.50;;;;;;;;;;4987221;28;20041;-58
2021/08/16 09:12:44;;;;;;;6.40;1.10;;;;;;;;;;5003727;28;20033;-59
2021/08/16 09:15:13;;;;;;;5.57;1.55;;;;;;;;;;5001284;28;20096;-59
2021/08/16 09:17:41;;;;;;;5.32;1.38;;;;;;;;;;5001436;28;20415;-58
2021/08/16 09:20:22;;;;;;;3.03;1.27;;;;;;;;;;5002243;28;20911;-57
2021/08/16 09:22:59;;;;;;;6.57;1.17;;;;;;;;;;5002611;28;20037;-59
2021/08/16 09:25:30;;;;;;;8.63;1.40;;;;;;;;;;4984272;28;20037;-57
2021/08/16 09:28:00;;;;;;;7.57;1.10;;;;;;;;;;5002001;28;20473;-59
2021/08/16 09:30:31;;;;;;;6.97;1.60;;;;;;;;;;4972217;28;20052;-58
2021/08/16 09:32:59;;;;;;;7.05;1.50;;;;;;;;;;5000805;28;20115;-59
2021/08/16 09:35:24;;;;;;;6.78;1.50;;;;;;;;;;5002739;28;21946;-59
2021/08/16 09:37:58;;;;;;;5.88;1.27;;;;;;;;;;4989167;28;20129;-58
2021/08/16 09:40:36;;;;;;;3.30;1.00;;;;;;;;;;5004787;28;20048;-58
2021/08/16 09:43:04;;;;;;;;;;;;;;;;;;5005718;28;20060;-58
2021/08/16 09:45:38;;;;;;;4.93;1.20;;;;;;;;;;5005260;28;19917;-58
2021/08/16 09:48:04;;;;;;;4.70;1.10;;;;;;;;;;5000914;28;20068;-59
2021/08/16 09:50:38;;;;;;;5.45;1.00;;;;;;;;;;4988218;28;20037;-59
2021/08/16 09:53:09;;;;;;;8.40;1.30;;;;;;;;;;5005110;28;20029;-58
2021/08/16 09:55:38;;;;;;;3.10;1.50;;;;;;;;;;5003887;28;20076;-59
2021/08/16 09:58:13;;;;;;;4.22;1.40;;;;;;;;;;4987995;28;20053;-59
2021/08/16 10:00:38;;;;;;;6.00;1.15;;;;;;;;;;5004209;28;20037;-59
2021/08/16 10:03:11;;;;;;;7.40;1.42;;;;;;;;;;4985913;28;20026;-59
2021/08/16 10:05:38;;;;;;;2.85;0.90;;;;;;;;;;5003869;28;20029;-57
2021/08/16 10:08:10;;;;;;;4.78;1.15;;;;;;;;;;5005396;28;20049;-58
2021/08/16 10:10:39;;;;;;;5.45;1.42;;;;;;;;;;4985561;28;20133;-58
2021/08/16 10:13:05;;;;;;;6.57;1.63;;;;;;;;;;5004728;28;20393;-59
2021/08/16 10:15:35;;;;;;;5.32;1.40;;;;;;;;;;5004798;28;20041;-60
2021/08/16 10:18:01;;;;;;;6.85;1.63;;;;;;;;;;5004976;28;20523;-60
2021/08/16 10:20:29;;;;;;;7.13;1.75;;;;;;;;;;4983013;28;20029;-59
2021/08/16 10:22:54;;;;;;;4.05;1.50;;;;;;;;;;4987672;28;20387;-59
2021/08/16 10:25:22;;;;;;;7.60;2.20;;;;;;;;;;4985289;28;20590;-58
2021/08/16 10:27:58;;;;;;;6.70;1.83;;;;;;;;;;4971205;28;20047;-59
2021/08/16 10:30:24;;;;;;;4.13;1.55;;;;;;;;;;5003466;28;20044;-58
2021/08/16 10:33:00;;;;;;;12.07;1.80;;;;;;;;;;5003429;28;20037;-59
2021/08/16 10:35:39;;;;;;;6.53;1.63;;;;;;;;;;5003733;28;20060;-59
2021/08/16 10:38:08;;;;;;;8.75;1.90;;;;;;;;;;4985135;28;22054;-59
2021/08/16 10:40:44;;;;;;;10.10;1.75;;;;;;;;;;5004215;28;20040;-59
2021/08/16 10:43:11;;;;;;;13.68;2.08;;;;;;;;;;5005268;28;20042;-60
2021/08/16 10:45:57;;;;;;;11.50;1.95;;;;;;;;;;4987718;28;20045;-59
2021/08/16 10:48:28;;;;;;;8.40;1.70;;;;;;;;;;4981594;28;20054;-60
2021/08/16 10:51:06;;;;;;;11.45;2.00;;;;;;;;;;4982433;28;20041;-59
2021/08/16 10:53:33;;;;;;;7.28;1.83;;;;;;;;;;4984763;28;20416;-58
2021/08/16 10:56:01;;;;;;;7.90;1.80;;;;;;;;;;4984205;28;20025;-59
2021/08/16 10:58:29;;;;;;;4.53;1.50;;;;;;;;;;4984097;28;20042;-58
2021/08/16 11:00:55;;;;;;;8.57;2.03;;;;;;;;;;4965203;28;20038;-59
2021/08/16 11:03:26;;;;;;;10.35;1.85;;;;;;;;;;4981073;28;20119;-59
2021/08/16 11:05:51;;;;;;;7.78;1.80;;;;;;;;;;4981930;28;20053;-60
2021/08/16 11:08:16;;;;;;;4.75;1.73;;;;;;;;;;4981011;28;20210;-59
2021/08/16 11:10:48;;;;;;;6.97;1.45;;;;;;;;;;4949959;28;20038;-59
2021/08/16 11:13:21;;;;;;;5.25;1.58;;;;;;;;;;4982842;28;20034;-59
2021/08/16 11:15:49;;;;;;;4.32;1.60;;;;;;;;;;4977288;28;20038;-58
2021/08/16 11:18:18;;;;;;;7.68;1.50;;;;;;;;;;4967554;28;20045;-59
2021/08/16 11:20:45;;;;;;;5.13;1.63;;;;;;;;;;4969531;28;20041;-60
2021/08/16 11:23:11;;;;;;;5.53;1.20;;;;;;;;;;4972503;28;20030;-60
2021/08/16 11:25:48;;;;;;;5.93;1.45;;;;;;;;;;4983868;28;20041;-59
2021/08/16 11:28:18;;;;;;;7.13;1.58;;;;;;;;;;4979013;28;20026;-59
2021/08/16 11:30:46;;;;;;;6.13;1.52;;;;;;;;;;4979385;28;20169;-58
2021/08/16 11:33:21;;;;;;;11.45;1.48;;;;;;;;;;4963542;28;20030;-58
2021/08/16 11:35:49;;;;;;;8.43;1.70;;;;;;;;;;4977343;28;20073;-60
2021/08/16 11:38:16;;;;;;;7.18;2.13;;;;;;;;;;4963537;28;20108;-59
2021/08/16 11:40:44;;;;;;;10.63;1.65;;;;;;;;;;4973880;28;20025;-59
2021/08/16 11:43:09;;;;;;;8.65;1.90;;;;;;;;;;4976752;28;20387;-59
2021/08/16 11:45:36;;;;;;;9.75;1.65;;;;;;;;;;4942977;28;20115;-60
2021/08/16 11:48:03;;;;;;;8.90;1.65;;;;;;;;;;4974507;28;20046;-60
2021/08/16 11:50:30;;;;;;;5.15;1.48;;;;;;;;;;4994936;28;20053;-58
2021/08/16 11:53:01;;;;;;;7.60;1.30;;;;;;;;;;4981888;28;20029;-60
2021/08/16 11:55:27;;;;;;;7.88;1.55;;;;;;;;;;4997057;28;20475;-59
2021/08/16 11:57:57;;;;;;;7.78;1.75;;;;;;;;;;4995914;28;20112;-60
2021/08/16 12:00:26;;;;;;;7.43;1.20;;;;;;;;;;4994368;28;20044;-59
2021/08/16 12:02:58;;;;;;;3.70;1.25;;;;;;;;;;4997313;28;20029;-58
2021/08/16 12:05:24;;;;;;;5.45;1.48;;;;;;;;;;4996889;28;20033;-59
2021/08/16 12:07:52;;;;;;;9.23;1.58;;;;;;;;;;4982481;28;20113;-59
2021/08/16 12:10:18;;;;;;;7.03;1.55;;;;;;;;;;5004364;28;20042;-60
2021/08/16 12:12:44;;;;;;;5.18;1.52;;;;;;;;;;5000267;28;20053;-61
2021/08/16 12:15:18;;;;;;;10.95;1.65;;;;;;;;;;4993974;28;20743;-57
2021/08/16 12:17:43;;;;;;;12.10;1.90;;;;;;;;;;4968987;28;20044;-58
2021/08/16 12:20:12;;;;;;;3.05;1.10;;;;;;;;;;4977526;28;20025;-59
2021/08/16 12:22:56;;;;;;;3.20;1.20;;;;;;;;;;4996821;28;20045;-59
2021/08/16 12:25:23;;;;;;;9.05;1.42;;;;;;;;;;4974829;28;20087;-58
2021/08/16 12:27:53;;;;;;;2.88;1.02;;;;;;;;;;4995532;28;20026;-58
2021/08/16 12:30:18;;;;;;;5.57;1.10;;;;;;;;;;4995499;28;20037;-58
2021/08/16 12:32:44;;;;;;;5.40;1.25;;;;;;;;;;4978171;28;22275;-59
2021/08/16 12:35:19;;;;;;;5.85;1.50;;;;;;;;;;4965166;28;20399;-59
2021/08/16 12:37:45;;;;;;;12.25;1.50;;;;;;;;;;4977122;28;20528;-58
2021/08/16 12:40:17;;;;;;;7.50;1.40;;;;;;;;;;4995147;28;20038;-59
2021/08/16 12:43:13;;;;;;;10.18;1.42;;;;;;;;;;4992813;28;20092;-59
2021/08/16 12:45:43;;;;;;;11.43;1.55;;;;;;;;;;4991400;28;20088;-59
2021/08/16 12:48:18;;;;;;;6.72;1.25;;;;;;;;;;4994601;28;20041;-59
2021/08/16 12:51:00;;;;;;;5.60;0.85;;;;;;;;;;4963114;28;20041;-59
2021/08/16 12:53:26;;;;;;;4.30;0.90;;;;;;;;;;4993684;28;20034;-58
2021/08/16 12:55:51;;;;;;;9.88;1.67;;;;;;;;;;4995999;28;20030;-58
2021/08/16 12:58:16;;;;;;;7.88;1.67;;;;;;;;;;4965069;28;20497;-58
2021/08/16 13:00:42;;;;;;;5.55;0.93;;;;;;;;;;4996863;28;20140;-58
2021/08/16 13:03:11;;;;;;;5.82;1.35;;;;;;;;;;4998575;28;20040;-59
2021/08/16 13:05:39;;;;;;;3.58;1.20;;;;;;;;;;4995245;28;20490;-60
2021/08/16 13:08:05;;;;;;;1.65;0.85;;;;;;;;;;4996064;28;21371;-58
2021/08/16 13:10:30;;;;;;;3.20;0.77;;;;;;;;;;4971900;28;20644;-58
2021/08/16 13:12:56;;;;;;;4.07;0.85;;;;;;;;;;5002836;28;20037;-58
2021/08/16 13:15:22;;;;;;;3.85;0.98;;;;;;;;;;4980173;28;20101;-59
2021/08/16 13:17:55;;;;;;;3.10;1.40;;;;;;;;;;4968790;28;20038;-58
2021/08/16 13:20:22;;;;;;;5.28;0.90;;;;;;;;;;4980332;28;20046;-59
2021/08/16 13:22:48;;;;;;;5.00;1.10;;;;;;;;;;5003395;28;20630;-60
2021/08/16 13:25:13;;;;;;;4.68;1.05;;;;;;;;;;5005708;28;20033;-59
2021/08/16 13:27:42;;;;;;;7.32;1.30;;;;;;;;;;4975265;28;20121;-58
2021/08/16 13:30:09;;;;;;;5.18;1.00;;;;;;;;;;4989078;28;20029;-58
2021/08/16 13:32:37;;;;;;;6.78;1.25;;;;;;;;;;5006933;28;20017;-59
2021/08/16 13:35:02;;;;;;;15.27;1.50;;;;;;;;;;4986859;28;20029;-59
2021/08/16 13:37:30;;;;;;;7.32;1.00;;;;;;;;;;5006524;28;20091;-59
2021/08/16 13:39:58;;;;;;;2.80;1.45;;;;;;;;;;4986433;28;20025;-59
2021/08/16 13:42:26;;;;;;;2.60;1.00;;;;;;;;;;4956928;28;20858;-59
2021/08/16 13:44:51;;;;;;;4.68;0.90;;;;;;;;;;4985648;28;20099;-59
2021/08/16 13:47:21;;;;;;;8.23;1.40;;;;;;;;;;5007276;28;20473;-60
2021/08/16 13:49:49;;;;;;;8.13;1.15;;;;;;;;;;5003953;28;20044;-59
2021/08/16 13:52:17;;;;;;;3.28;1.05;;;;;;;;;;5002399;28;20037;-59
2021/08/16 13:54:43;;;;;;;8.85;1.40;;;;;;;;;;4985978;28;20041;-60
2021/08/16 13:57:08;;;;;;;6.05;1.17;;;;;;;;;;4986495;28;20033;-59
2021/08/16 13:59:36;;;;;;;5.97;1.25;;;;;;;;;;5004857;28;20028;-60
2021/08/16 14:02:07;;;;;;;5.22;1.25;;;;;;;;;;5005135;28;20029;-59
2021/08/16 14:04:33;;;;;;;7.72;1.05;;;;;;;;;;4974355;28;20036;-59
2021/08/16 14:07:01;;;;;;;9.40;1.60;;;;;;;;;;4986844;28;20038;-60
2021/08/16 14:09:29;;;;;;;7.70;1.65;;;;;;;;;;5002955;28;20026;-60
2021/08/16 14:11:54;;;;;;;4.63;1.30;;;;;;;;;;4989032;28;20884;-59
2021/08/16 14:14:22;;;;;;;7.38;1.77;;;;;;;;;;4975261;28;20424;-58
2021/08/16 14:16:50;;;;;;;10.43;1.48;;;;;;;;;;4985439;28;20038;-57
2021/08/16 14:19:16;;;;;;;5.60;1.27;;;;;;;;;;5004350;28;20099;-58
2021/08/16 14:21:44;;;;;;;8.82;1.58;;;;;;;;;;4985788;28;20493;-58
2021/08/16 14:24:09;;;;;;;11.95;1.98;;;;;;;;;;5003692;28;20064;-57
2021/08/16 14:26:38;;;;;;;4.88;1.00;;;;;;;;;;5004741;28;20622;-57
2021/08/16 14:29:04;;;;;;;7.55;1.02;;;;;;;;;;5004322;28;20172;-58
2021/08/16 14:31:32;;;;;;;6.38;1.08;;;;;;;;;;4989709;28;20029;-55
2021/08/16 14:33:58;;;;;;;3.35;1.00;;;;;;;;;;5005029;28;20117;-57
2021/08/16 14:36:26;;;;;;;4.03;1.10;;;;;;;;;;5002844;28;20057;-58
2021/08/16 14:38:54;;;;;;;3.15;0.70;;;;;;;;;;4986342;28;20083;-59
2021/08/16 14:41:19;;;;;;;4.85;1.13;;;;;;;;;;4989460;28;20026;-59
2021/08/16 14:43:47;;;;;;;6.38;0.90;;;;;;;;;;4973496;28;20050;-58